createdAt,value
2022-10-07T00:00:50.280Z,13.05
2022-10-07T00:03:17.872Z,14.50
2022-10-07T00:05:44.501Z,13.68
2022-10-07T00:08:11.519Z,15.85
2022-10-07T00:10:42.758Z,16.35
2022-10-07T00:13:10.599Z,15.88
2022-10-07T00:15:37.255Z,13.57
2022-10-07T00:18:04.192Z,15.38
2022-10-07T00:20:30.784Z,17.30
2022-10-07T00:22:57.484Z,13.23
2022-10-07T00:25:24.389Z,12.27
2022-10-07T00:27:50.996Z,14.38
2022-10-07T00:30:18.086Z,14.35
2022-10-07T00:32:44.894Z,11.63
2022-10-07T00:35:11.539Z,16.42
2022-10-07T00:37:43.185Z,12.85
2022-10-07T00:40:13.084Z,13.73
2022-10-07T00:42:43.493Z,13.32
2022-10-07T00:45:15.986Z,17.25
2022-10-07T00:47:48.483Z,13.02
2022-10-07T00:50:25.867Z,15.98
2022-10-07T00:52:57.416Z,14.80
2022-10-07T00:55:27.141Z,13.43
2022-10-07T00:57:57.269Z,16.00
2022-10-07T01:00:24.218Z,14.57
2022-10-07T01:02:51.908Z,13.07
2022-10-07T01:05:19.591Z,13.05
2022-10-07T01:07:48.507Z,10.30
2022-10-07T01:10:19.992Z,15.80
2022-10-07T01:12:58.774Z,11.02
2022-10-07T01:15:34.500Z,16.08
2022-10-07T01:18:22.841Z,13.35
2022-10-07T01:21:07.310Z,12.70
2022-10-07T01:23:53.069Z,11.00
2022-10-07T01:26:34.775Z,13.68
2022-10-07T01:29:05.437Z,12.80
2022-10-07T01:31:37.875Z,13.02
2022-10-07T01:34:06.922Z,15.95
2022-10-07T01:36:37.008Z,12.18
2022-10-07T01:39:10.119Z,15.65
2022-10-07T01:41:38.929Z,11.80
2022-10-07T01:44:07.308Z,13.75
2022-10-07T01:46:37.749Z,13.57
2022-10-07T01:49:06.191Z,15.32
2022-10-07T01:51:37.125Z,13.73
2022-10-07T01:54:13.187Z,15.45
2022-10-07T01:57:13.875Z,15.10
2022-10-07T01:59:55.565Z,12.68
2022-10-07T02:02:44.087Z,14.63
2022-10-07T02:05:32.098Z,13.32
2022-10-07T02:08:13.620Z,13.23
2022-10-07T02:11:15.821Z,14.23
2022-10-07T02:14:00.974Z,17.75
2022-10-07T02:16:37.869Z,14.77
2022-10-07T02:19:11.023Z,12.88
2022-10-07T02:21:40.380Z,14.48
2022-10-07T02:24:10.633Z,14.90
2022-10-07T02:26:40.189Z,19.77
2022-10-07T02:29:10.630Z,15.18
2022-10-07T02:31:41.414Z,14.57
2022-10-07T02:34:17.503Z,13.80
2022-10-07T02:36:54.794Z,16.00
2022-10-07T02:39:21.679Z,17.05
2022-10-07T02:42:13.915Z,13.25
2022-10-07T02:45:02.209Z,14.77
2022-10-07T02:47:36.387Z,15.00
2022-10-07T02:50:09.094Z,14.18
2022-10-07T02:52:35.915Z,13.02
2022-10-07T02:55:09.715Z,15.10
2022-10-07T03:00:15.694Z,14.73
2022-10-07T03:03:02.678Z,15.88
2022-10-07T03:05:49.331Z,13.43
2022-10-07T03:08:16.503Z,15.95
2022-10-07T03:10:43.862Z,12.90
2022-10-07T03:13:13.241Z,16.05
2022-10-07T03:15:43.311Z,15.80
2022-10-07T03:18:28.688Z,15.40
2022-10-07T03:21:04.639Z,12.73
2022-10-07T03:23:31.282Z,12.73
2022-10-07T03:25:59.322Z,12.27
2022-10-07T03:28:28.362Z,16.38
2022-10-07T03:31:03.331Z,14.45
2022-10-07T03:33:30.175Z,14.73
2022-10-07T03:35:56.828Z,16.10
2022-10-07T03:38:23.354Z,12.20
2022-10-07T03:40:49.935Z,15.60
2022-10-07T03:43:16.568Z,14.85
2022-10-07T03:45:44.840Z,12.95
2022-10-07T03:48:12.327Z,14.18
2022-10-07T03:50:39.688Z,13.40
2022-10-07T03:53:06.277Z,14.07
2022-10-07T03:55:32.975Z,14.57
2022-10-07T03:57:59.973Z,14.95
2022-10-07T04:00:28.779Z,17.10
2022-10-07T04:02:57.144Z,15.02
2022-10-07T04:05:24.302Z,15.38
2022-10-07T04:07:52.231Z,18.67
2022-10-07T04:10:20.526Z,14.90
2022-10-07T04:12:49.543Z,13.63
2022-10-07T04:15:16.305Z,16.52
2022-10-07T04:17:48.102Z,16.88
2022-10-07T04:20:17.550Z,17.48
2022-10-07T04:22:44.175Z,13.65
2022-10-07T04:25:30.673Z,16.90
2022-10-07T04:28:01.282Z,16.60
2022-10-07T04:30:39.539Z,16.10
2022-10-07T04:33:07.677Z,14.55
2022-10-07T04:35:38.732Z,16.05
2022-10-07T04:38:09.173Z,14.88
2022-10-07T04:40:43.054Z,16.42
2022-10-07T04:43:23.425Z,12.98
2022-10-07T04:46:05.733Z,17.55
2022-10-07T04:48:34.936Z,14.13
2022-10-07T04:51:03.978Z,17.42
2022-10-07T04:53:31.794Z,18.42
2022-10-07T04:55:59.765Z,15.88
2022-10-07T04:58:28.885Z,16.38
2022-10-07T05:00:57.702Z,13.02
2022-10-07T05:03:28.566Z,12.23
2022-10-07T05:06:05.197Z,12.43
2022-10-07T05:08:32.991Z,15.57
2022-10-07T05:11:01.875Z,15.95
2022-10-07T05:13:34.256Z,17.65
2022-10-07T05:16:03.325Z,17.05
2022-10-07T05:18:31.399Z,15.48
2022-10-07T05:21:07.150Z,15.88
2022-10-07T05:23:37.043Z,15.40
2022-10-07T05:26:09.672Z,20.33
2022-10-07T05:28:40.108Z,17.83
2022-10-07T05:31:12.544Z,17.25
2022-10-07T05:33:40.730Z,15.77
2022-10-07T05:36:08.772Z,15.15
2022-10-07T05:38:37.256Z,14.18
2022-10-07T05:41:07.291Z,14.57
2022-10-07T05:43:40.408Z,15.05
2022-10-07T05:46:14.774Z,14.80
2022-10-07T05:48:47.165Z,15.27
2022-10-07T05:51:14.363Z,20.30
2022-10-07T05:53:41.595Z,14.30
2022-10-07T05:56:11.231Z,18.92
2022-10-07T05:58:38.950Z,18.02
2022-10-07T06:01:14.186Z,16.63
2022-10-07T06:03:43.004Z,20.27
2022-10-07T06:06:10.489Z,19.92
2022-10-07T06:08:37.326Z,31.80
2022-10-07T06:11:24.581Z,23.15
2022-10-07T06:13:53.403Z,18.38
2022-10-07T06:16:20.416Z,17.08
2022-10-07T06:18:50.527Z,20.17
2022-10-07T06:21:19.529Z,17.23
2022-10-07T06:23:53.032Z,15.85
2022-10-07T06:26:23.761Z,17.33
2022-10-07T06:28:51.094Z,17.90
2022-10-07T06:31:25.818Z,15.80
2022-10-07T06:33:57.759Z,20.27
2022-10-07T06:36:24.395Z,16.13
2022-10-07T06:38:55.428Z,16.05
2022-10-07T06:41:26.967Z,16.98
2022-10-07T06:44:05.579Z,19.20
2022-10-07T06:46:33.857Z,15.73
2022-10-07T06:49:00.581Z,14.93
2022-10-07T06:51:27.154Z,16.58
2022-10-07T06:53:57.891Z,19.83
2022-10-07T06:56:25.870Z,16.05
2022-10-07T06:58:52.600Z,17.85
2022-10-07T07:01:29.148Z,15.15
2022-10-07T07:03:56.451Z,16.58
2022-10-07T07:06:23.912Z,15.10
2022-10-07T07:08:51.220Z,15.57
2022-10-07T07:11:37.693Z,19.73
2022-10-07T07:14:12.601Z,15.43
2022-10-07T07:16:42.222Z,16.55
2022-10-07T07:19:12.147Z,18.20
2022-10-07T07:21:40.988Z,15.65
2022-10-07T07:24:10.509Z,15.20
2022-10-07T07:26:39.439Z,14.45
2022-10-07T07:29:08.130Z,12.80
2022-10-07T07:31:42.958Z,13.27
2022-10-07T07:34:12.372Z,12.18
2022-10-07T07:36:44.738Z,14.32
2022-10-07T07:39:14.291Z,14.02
2022-10-07T07:41:46.675Z,12.35
2022-10-07T07:46:47.638Z,11.70
2022-10-07T07:49:15.738Z,12.85
2022-10-07T07:51:44.332Z,11.20
2022-10-07T07:54:15.994Z,12.60
2022-10-07T07:56:45.234Z,13.75
2022-10-07T07:59:11.991Z,12.48
2022-10-07T08:01:39.454Z,10.48
2022-10-07T08:04:07.021Z,10.93
2022-10-07T08:06:34.748Z,13.45
2022-10-07T08:09:03.763Z,13.73
2022-10-07T08:11:35.499Z,13.48
2022-10-07T08:14:03.368Z,12.73
2022-10-07T08:16:32.854Z,13.25
2022-10-07T08:19:00.621Z,13.38
2022-10-07T08:21:32.849Z,13.18
2022-10-07T08:24:02.758Z,19.17
2022-10-07T08:26:34.728Z,13.10
2022-10-07T08:29:04.899Z,14.35
2022-10-07T08:31:32.420Z,12.55
2022-10-07T08:34:00.898Z,13.32
2022-10-07T08:36:29.451Z,12.38
2022-10-07T08:38:56.682Z,12.05
2022-10-07T08:41:39.270Z,14.32
2022-10-07T08:44:20.952Z,13.63
2022-10-07T08:47:09.848Z,16.00
2022-10-07T08:49:49.064Z,15.68
2022-10-07T08:52:44.539Z,16.88
2022-10-07T08:55:39.681Z,15.38
2022-10-07T08:58:57.893Z,17.67
2022-10-07T09:01:30.835Z,14.85
2022-10-07T09:04:33.730Z,14.82
2022-10-07T09:07:20.858Z,15.73
2022-10-07T09:09:55.277Z,17.73
2022-10-07T09:12:36.778Z,19.80
2022-10-07T09:15:06.842Z,15.43
2022-10-07T09:17:40.611Z,16.27
2022-10-07T09:20:17.513Z,19.85
2022-10-07T09:22:50.209Z,18.20
2022-10-07T09:25:30.509Z,16.97
2022-10-07T09:27:57.842Z,21.23
2022-10-07T09:30:27.894Z,21.48
2022-10-07T09:32:55.773Z,20.83
2022-10-07T09:35:25.632Z,19.77
2022-10-07T09:38:09.130Z,23.92
2022-10-07T09:41:02.775Z,20.73
2022-10-07T09:43:31.620Z,21.52
2022-10-07T09:46:00.640Z,17.88
2022-10-07T09:48:34.258Z,17.90
2022-10-07T09:51:18.241Z,18.92
2022-10-07T09:54:03.025Z,18.67
2022-10-07T09:56:34.568Z,20.50
2022-10-07T09:59:23.104Z,18.65
2022-10-07T10:01:59.145Z,20.33
2022-10-07T10:04:33.476Z,18.00
2022-10-07T10:07:04.611Z,16.75
2022-10-07T10:09:32.870Z,19.92
2022-10-07T10:12:11.054Z,17.10
2022-10-07T10:14:48.168Z,18.17
2022-10-07T10:17:40.484Z,20.42
2022-10-07T10:20:36.341Z,21.30
2022-10-07T10:23:27.929Z,20.75
2022-10-07T10:26:32.514Z,22.40
2022-10-07T10:29:21.432Z,21.45
2022-10-07T10:32:07.380Z,19.67
2022-10-07T10:35:06.276Z,18.35
2022-10-07T10:37:41.698Z,18.83
2022-10-07T10:40:14.165Z,18.33
2022-10-07T10:42:53.103Z,18.70
2022-10-07T10:45:37.471Z,18.52
2022-10-07T10:48:34.684Z,17.77
2022-10-07T10:51:31.636Z,20.05
2022-10-07T10:54:24.023Z,17.90
2022-10-07T10:57:12.005Z,16.88
2022-10-07T10:59:50.633Z,18.77
2022-10-07T11:02:32.648Z,18.80
2022-10-07T11:05:08.805Z,17.65
2022-10-07T11:07:39.501Z,18.23
2022-10-07T11:10:21.311Z,17.30
2022-10-07T11:12:54.843Z,18.75
2022-10-07T11:15:28.743Z,17.02
2022-10-07T11:18:01.265Z,16.30
2022-10-07T11:20:33.540Z,16.70
2022-10-07T11:23:25.005Z,14.88
2022-10-07T11:25:59.790Z,16.75
2022-10-07T11:28:27.859Z,14.13
2022-10-07T11:31:15.066Z,15.73
2022-10-07T11:33:50.530Z,15.75
2022-10-07T11:36:46.583Z,13.68
2022-10-07T11:39:13.057Z,16.55
2022-10-07T11:42:17.426Z,13.77
2022-10-07T11:45:03.243Z,15.35
2022-10-07T11:47:53.157Z,14.15
2022-10-07T11:50:27.739Z,15.15
2022-10-07T11:53:01.377Z,13.40
2022-10-07T11:55:35.138Z,13.80
2022-10-07T11:58:04.153Z,12.00
2022-10-07T12:00:39.447Z,16.42
2022-10-07T12:03:18.282Z,14.52
2022-10-07T12:05:50.646Z,12.82
2022-10-07T12:08:37.470Z,11.77
2022-10-07T12:11:13.247Z,12.88
2022-10-07T12:13:42.754Z,16.35
2022-10-07T12:16:24.580Z,13.05
2022-10-07T12:19:06.361Z,15.60
2022-10-07T12:22:02.961Z,11.90
2022-10-07T12:24:31.637Z,12.60
2022-10-07T12:27:21.609Z,13.77
2022-10-07T12:29:50.939Z,14.15
2022-10-07T12:32:41.370Z,12.15
2022-10-07T12:35:29.786Z,12.50
2022-10-07T12:38:04.904Z,12.93
2022-10-07T12:40:34.898Z,13.35
2022-10-07T12:43:13.935Z,11.85
2022-10-07T12:45:43.335Z,11.60
2022-10-07T12:48:18.211Z,12.65
2022-10-07T12:50:47.194Z,15.38
2022-10-07T12:53:14.041Z,14.25
2022-10-07T12:55:50.244Z,11.27
2022-10-07T12:58:41.588Z,12.95
2022-10-07T13:01:29.725Z,11.90
2022-10-07T13:04:33.617Z,14.93
2022-10-07T13:07:18.795Z,17.50
2022-10-07T13:10:03.548Z,11.45
2022-10-07T13:12:42.517Z,12.45
2022-10-07T13:15:31.458Z,14.65
2022-10-07T13:18:12.785Z,12.15
2022-10-07T13:20:57.776Z,14.07
2022-10-07T13:23:27.635Z,17.00
2022-10-07T13:25:57.636Z,12.75
2022-10-07T13:28:30.933Z,12.88
2022-10-07T13:33:38.112Z,10.90
2022-10-07T13:36:16.779Z,15.48
2022-10-07T13:38:46.290Z,11.13
2022-10-07T13:41:27.546Z,12.60
2022-10-07T13:44:02.106Z,12.05
2022-10-07T13:46:31.200Z,14.20
2022-10-07T13:48:59.195Z,11.35
2022-10-07T13:51:39.967Z,10.25
2022-10-07T13:54:18.393Z,12.57
2022-10-07T13:56:45.800Z,18.33
2022-10-07T13:59:17.918Z,15.55
2022-10-07T14:01:50.544Z,11.90
2022-10-07T14:04:27.469Z,13.18
2022-10-07T14:06:56.176Z,14.15
2022-10-07T14:09:31.634Z,12.82
2022-10-07T14:12:04.019Z,11.57
2022-10-07T14:14:35.473Z,15.32
2022-10-07T14:17:08.381Z,14.02
2022-10-07T14:19:35.147Z,14.30
2022-10-07T14:22:04.424Z,13.93
2022-10-07T14:24:31.538Z,13.43
2022-10-07T14:26:58.188Z,15.40
2022-10-07T14:29:27.503Z,13.02
2022-10-07T14:32:47.706Z,15.70
2022-10-07T14:35:23.908Z,16.77
2022-10-07T14:37:50.482Z,14.27
2022-10-07T14:40:19.416Z,13.27
2022-10-07T14:42:46.745Z,14.77
2022-10-07T14:45:17.983Z,16.08
2022-10-07T14:47:45.337Z,18.50
2022-10-07T14:50:13.408Z,14.13
2022-10-07T14:52:46.189Z,14.32
2022-10-07T14:55:16.139Z,13.55
2022-10-07T14:57:43.143Z,15.00
2022-10-07T15:00:18.311Z,16.38
2022-10-07T15:02:45.243Z,15.98
2022-10-07T15:05:16.017Z,14.30
2022-10-07T15:07:42.687Z,18.70
2022-10-07T15:10:20.898Z,17.90
2022-10-07T15:12:48.094Z,20.33
2022-10-07T15:15:15.661Z,14.90
2022-10-07T15:17:43.021Z,17.75
2022-10-07T15:20:11.948Z,15.00
2022-10-07T15:22:38.542Z,19.92
2022-10-07T15:25:09.346Z,18.05
2022-10-07T15:27:36.461Z,18.73
2022-10-07T15:30:03.362Z,15.93
2022-10-07T15:32:30.196Z,16.60
2022-10-07T15:34:57.807Z,18.20
2022-10-07T15:37:27.693Z,18.30
2022-10-07T15:39:54.725Z,17.45
2022-10-07T15:42:23.744Z,19.40
2022-10-07T15:44:50.378Z,20.92
2022-10-07T15:47:17.392Z,19.35
2022-10-07T15:49:44.176Z,17.95
2022-10-07T15:52:11.644Z,19.42
2022-10-07T15:54:38.935Z,18.90
2022-10-07T15:57:05.734Z,19.75
2022-10-07T15:59:32.269Z,20.13
2022-10-07T16:01:58.920Z,17.52
2022-10-07T16:04:25.694Z,19.05
2022-10-07T16:06:52.557Z,20.52
2022-10-07T16:09:20.608Z,24.20
2022-10-07T16:11:47.921Z,23.27
2022-10-07T16:14:14.879Z,21.88
2022-10-07T16:16:42.605Z,17.95
2022-10-07T16:19:10.042Z,19.60
2022-10-07T16:21:39.214Z,18.67
2022-10-07T16:24:18.151Z,18.15
2022-10-07T16:26:46.827Z,16.50
2022-10-07T16:29:34.555Z,16.23
2022-10-07T16:32:01.499Z,17.85
2022-10-07T16:34:28.703Z,17.13
2022-10-07T16:36:57.351Z,17.75
2022-10-07T16:39:24.431Z,16.25
2022-10-07T16:41:52.352Z,15.30
2022-10-07T16:44:19.748Z,18.05
2022-10-07T16:46:46.971Z,17.90
2022-10-07T16:49:17.940Z,20.58
2022-10-07T16:51:46.035Z,16.85
2022-10-07T16:54:16.017Z,19.13
2022-10-07T16:56:49.133Z,18.85
2022-10-07T16:59:23.190Z,19.77
2022-10-07T17:01:55.662Z,16.83
2022-10-07T17:04:24.399Z,20.55
2022-10-07T17:06:50.932Z,18.27
2022-10-07T17:09:18.381Z,19.00
2022-10-07T17:11:45.912Z,19.30
2022-10-07T17:14:18.736Z,16.38
2022-10-07T17:16:51.170Z,18.75
2022-10-07T17:19:19.938Z,18.52
2022-10-07T17:21:48.499Z,18.80
2022-10-07T17:24:20.152Z,21.45
2022-10-07T17:26:47.154Z,19.52
2022-10-07T17:29:18.251Z,18.73
2022-10-07T17:31:48.218Z,16.77
2022-10-07T17:34:16.122Z,19.63
2022-10-07T17:36:43.860Z,20.33
2022-10-07T17:39:10.561Z,17.05
2022-10-07T17:41:38.363Z,16.15
2022-10-07T17:44:09.384Z,19.75
2022-10-07T17:46:38.014Z,17.67
2022-10-07T17:49:06.610Z,20.92
2022-10-07T17:51:34.670Z,18.73
2022-10-07T17:54:02.422Z,21.63
2022-10-07T17:56:31.903Z,17.25
2022-10-07T17:58:58.932Z,21.02
2022-10-07T18:01:27.962Z,20.40
2022-10-07T18:03:57.502Z,21.42
2022-10-07T18:06:29.226Z,21.75
2022-10-07T18:08:58.876Z,21.40
2022-10-07T18:11:46.438Z,20.13
2022-10-07T18:14:32.106Z,23.60
2022-10-07T18:16:59.016Z,24.90
2022-10-07T18:19:26.661Z,25.90
2022-10-07T18:21:56.184Z,26.13
2022-10-07T18:24:28.665Z,32.53
2022-10-07T18:26:58.858Z,28.98
2022-10-07T18:29:34.322Z,35.50
2022-10-07T18:32:01.092Z,31.20
2022-10-07T18:34:27.696Z,27.95
2022-10-07T18:36:57.016Z,25.08
2022-10-07T18:39:28.077Z,23.55
2022-10-07T18:41:55.077Z,23.35
2022-10-07T18:44:21.933Z,24.70
2022-10-07T18:46:48.628Z,26.50
2022-10-07T18:49:16.378Z,24.23
2022-10-07T18:51:43.298Z,23.80
2022-10-07T18:54:10.680Z,23.85
2022-10-07T18:56:41.007Z,25.90
2022-10-07T18:59:09.557Z,28.92
2022-10-07T19:01:37.394Z,26.55
2022-10-07T19:04:06.010Z,22.08
2022-10-07T19:06:35.140Z,21.77
2022-10-07T19:09:06.098Z,22.35
2022-10-07T19:11:33.416Z,21.52
2022-10-07T19:14:01.256Z,24.98
2022-10-07T19:16:34.954Z,24.20
2022-10-07T19:19:07.506Z,23.35
2022-10-07T19:21:35.847Z,28.27
2022-10-07T19:24:03.753Z,27.95
2022-10-07T19:26:35.965Z,24.50
2022-10-07T19:29:03.870Z,29.60
2022-10-07T19:31:32.784Z,27.80
2022-10-07T19:34:02.253Z,24.48
2022-10-07T19:36:34.281Z,25.33
2022-10-07T19:39:01.846Z,25.95
2022-10-07T19:41:31.314Z,24.42
2022-10-07T19:43:58.621Z,23.20
2022-10-07T19:46:27.549Z,23.15
2022-10-07T19:48:59.624Z,24.45
2022-10-07T19:51:28.532Z,26.92
2022-10-07T19:53:57.319Z,26.70
2022-10-07T19:56:29.330Z,26.02
2022-10-07T19:58:58.662Z,28.83
2022-10-07T20:01:28.263Z,25.92
2022-10-07T20:04:03.823Z,26.17
2022-10-07T20:06:31.221Z,28.20
2022-10-07T20:08:58.382Z,28.17
2022-10-07T20:11:25.728Z,25.42
2022-10-07T20:13:54.237Z,27.52
2022-10-07T20:16:26.790Z,28.27
2022-10-07T20:19:08.052Z,25.67
2022-10-07T20:21:36.768Z,20.80
2022-10-07T20:24:04.327Z,28.08
2022-10-07T20:26:33.186Z,26.30
2022-10-07T20:29:01.425Z,24.17
2022-10-07T20:31:30.383Z,32.33
2022-10-07T20:33:59.078Z,29.23
2022-10-07T20:36:28.707Z,29.92
2022-10-07T20:39:15.495Z,31.40
2022-10-07T20:42:06.390Z,31.50
2022-10-07T20:44:33.123Z,33.15
2022-10-07T20:46:59.781Z,34.03
2022-10-07T20:49:28.628Z,28.80
2022-10-07T20:51:57.444Z,37.42
2022-10-07T20:54:25.428Z,31.40
2022-10-07T20:56:59.502Z,28.23
2022-10-07T20:59:30.059Z,26.50
2022-10-07T21:01:57.630Z,31.67
2022-10-07T21:04:28.663Z,26.77
2022-10-07T21:06:56.741Z,23.17
2022-10-07T21:09:24.773Z,26.42
2022-10-07T21:11:51.784Z,26.13
2022-10-07T21:14:18.378Z,29.58
2022-10-07T21:16:46.608Z,31.02
2022-10-07T21:19:14.393Z,27.92
2022-10-07T21:21:41.382Z,28.63
2022-10-07T21:24:08.253Z,29.15
2022-10-07T21:26:36.441Z,25.95
2022-10-07T21:29:04.224Z,28.08
2022-10-07T21:31:31.431Z,27.35
2022-10-07T21:34:01.598Z,28.70
2022-10-07T21:36:28.243Z,25.17
2022-10-07T21:38:58.674Z,28.95
2022-10-07T21:41:27.632Z,27.92
2022-10-07T21:43:55.857Z,23.48
2022-10-07T21:46:24.561Z,22.67
2022-10-07T21:48:54.236Z,26.95
2022-10-07T21:51:22.191Z,23.98
2022-10-07T21:53:53.084Z,29.80
2022-10-07T21:56:20.582Z,24.08
2022-10-07T21:58:49.368Z,24.33
2022-10-07T22:01:18.004Z,27.42
2022-10-07T22:03:46.090Z,29.95
2022-10-07T22:06:16.056Z,30.02
2022-10-07T22:08:45.838Z,29.05
2022-10-07T22:11:17.976Z,30.98
2022-10-07T22:13:53.069Z,26.90
2022-10-07T22:16:20.105Z,30.08
2022-10-07T22:18:52.141Z,34.20
2022-10-07T22:21:24.146Z,33.70
2022-10-07T22:23:53.130Z,32.22
2022-10-07T22:26:22.333Z,32.85
2022-10-07T22:28:49.716Z,32.90
2022-10-07T22:31:17.020Z,34.35
2022-10-07T22:33:44.757Z,34.55
2022-10-07T22:36:13.246Z,37.55
2022-10-07T22:38:40.905Z,37.78
2022-10-07T22:41:10.263Z,41.00
2022-10-07T22:43:44.462Z,45.00
2022-10-07T22:46:13.362Z,39.42
2022-10-07T22:48:43.055Z,46.45
2022-10-07T22:51:12.291Z,68.45
2022-10-07T22:53:42.961Z,54.85
2022-10-07T22:56:13.914Z,48.47
2022-10-07T22:58:42.364Z,47.78
2022-10-07T23:01:12.097Z,60.53
2022-10-07T23:03:40.245Z,54.95
2022-10-07T23:06:07.287Z,44.72
2022-10-07T23:08:34.895Z,36.97
2022-10-07T23:11:03.289Z,57.60
2022-10-07T23:13:33.170Z,39.08
2022-10-07T23:16:02.272Z,40.70
2022-10-07T23:18:29.706Z,44.50
2022-10-07T23:21:08.221Z,37.47
2022-10-07T23:23:36.458Z,41.92
2022-10-07T23:26:05.394Z,36.40
2022-10-07T23:28:34.537Z,41.88
2022-10-07T23:31:09.471Z,34.65
2022-10-07T23:33:37.283Z,45.65
2022-10-07T23:36:06.163Z,41.92
2022-10-07T23:38:33.565Z,28.85
2022-10-07T23:41:01.374Z,32.22
2022-10-07T23:43:33.388Z,32.38
2022-10-07T23:46:01.446Z,37.03
2022-10-07T23:48:28.435Z,34.33
2022-10-07T23:50:55.292Z,30.77
2022-10-07T23:53:22.555Z,34.67
2022-10-07T23:55:51.603Z,37.80
2022-10-07T23:58:21.078Z,36.67
